Terminal Aerodrome Forecast
Issued by NWS Cleveland, OH

Home | Current Version | Previous Version | Text Only | Print | Product List | Glossary On
Versions: 1 2 3 4 5 6 7 8 9 10 11 12 13 14 15 16 17 18 19 20 21
510
FTUS41 KCLE 022328
TAFCAK
TAF
KCAK 022328Z 0300/0324 26010KT P6SM SCT022 OVC035
      TEMPO 0300/0303 4SM -SHRASN BR BKN018
     FM030300 28009KT P6SM BKN022 OVC035
     FM030900 28006KT 4SM BR OVC015
     FM031600 28008KT P6SM OVC018
     FM032100 28008KT P6SM OVC030=

USA.gov is the U.S. government's official web portal to all federal, state and local government web resources and services.